sensor_id;sensor_type;location;lat;lon;timestamp;P1;durP1;ratioP1;P2;durP2;ratioP2
41229;SDS011;26964;50.428;19.218;2023-04-28T00:00:34;57.4;;;30.8;;
41229;SDS011;26964;50.428;19.218;2023-04-28T00:01:33;60.7;;;34.4;;
41229;SDS011;26964;50.428;19.218;2023-04-28T00:02:33;66.5;;;37.1;;
41229;SDS011;26964;50.428;19.218;2023-04-28T00:03:33;71.9;;;39.5;;
41229;SDS011;26964;50.428;19.218;2023-04-28T00:04:33;69.8;;;39.4;;
41229;SDS011;26964;50.428;19.218;2023-04-28T00:05:33;67.9;;;39.0;;
41229;SDS011;26964;50.428;19.218;2023-04-28T00:06:33;73.7;;;40.8;;
41229;SDS011;26964;50.428;19.218;2023-04-28T00:07:33;73.2;;;40.5;;
41229;SDS011;26964;50.428;19.218;2023-04-28T00:08:33;71.5;;;38.6;;
41229;SDS011;26964;50.428;19.218;2023-04-28T00:09:33;59.8;;;34.9;;
41229;SDS011;26964;50.428;19.218;2023-04-28T00:10:33;53.8;;;30.2;;
41229;SDS011;26964;50.428;19.218;2023-04-28T00:11:33;53.9;;;30.7;;
41229;SDS011;26964;50.428;19.218;2023-04-28T00:12:33;60.9;;;33.1;;
41229;SDS011;26964;50.428;19.218;2023-04-28T00:13:33;58.8;;;33.4;;
41229;SDS011;26964;50.428;19.218;2023-04-28T00:14:33;62.6;;;33.3;;
41229;SDS011;26964;50.428;19.218;2023-04-28T00:15:33;56.5;;;31.6;;
41229;SDS011;26964;50.428;19.218;2023-04-28T00:16:33;54.6;;;30.9;;
41229;SDS011;26964;50.428;19.218;2023-04-28T00:17:33;57.3;;;32.0;;
41229;SDS011;26964;50.428;19.218;2023-04-28T00:18:33;59.3;;;32.4;;
41229;SDS011;26964;50.428;19.218;2023-04-28T00:19:33;56.4;;;31.9;;
41229;SDS011;26964;50.428;19.218;2023-04-28T00:20:33;53.2;;;31.0;;
41229;SDS011;26964;50.428;19.218;2023-04-28T00:21:33;57.0;;;32.4;;
41229;SDS011;26964;50.428;19.218;2023-04-28T00:22:33;55.2;;;29.7;;
41229;SDS011;26964;50.428;19.218;2023-04-28T00:23:33;58.4;;;32.0;;
41229;SDS011;26964;50.428;19.218;2023-04-28T00:24:33;55.4;;;30.4;;
41229;SDS011;26964;50.428;19.218;2023-04-28T00:25:33;55.1;;;29.9;;
41229;SDS011;26964;50.428;19.218;2023-04-28T00:26:33;55.5;;;31.5;;
41229;SDS011;26964;50.428;19.218;2023-04-28T00:27:33;51.7;;;30.3;;
41229;SDS011;26964;50.428;19.218;2023-04-28T00:28:33;57.7;;;32.3;;
41229;SDS011;26964;50.428;19.218;2023-04-28T00:29:33;51.7;;;30.1;;
41229;SDS011;26964;50.428;19.218;2023-04-28T00:30:33;52.5;;;30.7;;
41229;SDS011;26964;50.428;19.218;2023-04-28T00:31:33;52.4;;;30.7;;
41229;SDS011;26964;50.428;19.218;2023-04-28T00:32:33;57.2;;;29.9;;
41229;SDS011;26964;50.428;19.218;2023-04-28T00:33:33;56.5;;;31.2;;
41229;SDS011;26964;50.428;19.218;2023-04-28T00:34:33;61.2;;;33.7;;
41229;SDS011;26964;50.428;19.218;2023-04-28T00:35:33;58.3;;;32.7;;
41229;SDS011;26964;50.428;19.218;2023-04-28T00:36:33;53.5;;;30.1;;
41229;SDS011;26964;50.428;19.218;2023-04-28T00:37:34;53.1;;;30.9;;
41229;SDS011;26964;50.428;19.218;2023-04-28T00:38:33;58.8;;;33.2;;
41229;SDS011;26964;50.428;19.218;2023-04-28T00:39:33;52.1;;;29.7;;
41229;SDS011;26964;50.428;19.218;2023-04-28T00:40:33;45.0;;;25.8;;
41229;SDS011;26964;50.428;19.218;2023-04-28T00:41:44;50.2;;;27.1;;
41229;SDS011;26964;50.428;19.218;2023-04-28T00:42:33;49.1;;;27.2;;
41229;SDS011;26964;50.428;19.218;2023-04-28T00:44:33;48.4;;;27.5;;
41229;SDS011;26964;50.428;19.218;2023-04-28T00:45:33;51.8;;;27.9;;
41229;SDS011;26964;50.428;19.218;2023-04-28T00:46:33;47.1;;;27.8;;
41229;SDS011;26964;50.428;19.218;2023-04-28T00:47:33;52.7;;;29.6;;
41229;SDS011;26964;50.428;19.218;2023-04-28T00:48:33;57.4;;;31.3;;
41229;SDS011;26964;50.428;19.218;2023-04-28T00:49:33;58.6;;;31.6;;
41229;SDS011;26964;50.428;19.218;2023-04-28T00:50:33;52.8;;;30.2;;
41229;SDS011;26964;50.428;19.218;2023-04-28T00:51:41;56.4;;;30.6;;
41229;SDS011;26964;50.428;19.218;2023-04-28T00:52:33;50.1;;;28.4;;
41229;SDS011;26964;50.428;19.218;2023-04-28T00:53:33;47.5;;;26.6;;
41229;SDS011;26964;50.428;19.218;2023-04-28T00:54:33;42.1;;;25.2;;
41229;SDS011;26964;50.428;19.218;2023-04-28T00:55:33;44.2;;;25.9;;
41229;SDS011;26964;50.428;19.218;2023-04-28T00:56:33;46.0;;;26.8;;
41229;SDS011;26964;50.428;19.218;2023-04-28T00:57:36;43.1;;;25.6;;
41229;SDS011;26964;50.428;19.218;2023-04-28T00:58:33;46.4;;;25.2;;
41229;SDS011;26964;50.428;19.218;2023-04-28T00:59:33;44.8;;;24.5;;
41229;SDS011;26964;50.428;19.218;2023-04-28T01:00:33;42.2;;;25.1;;
41229;SDS011;26964;50.428;19.218;2023-04-28T01:01:33;43.5;;;24.8;;
41229;SDS011;26964;50.428;19.218;2023-04-28T01:02:33;41.1;;;23.9;;
41229;SDS011;26964;50.428;19.218;2023-04-28T01:03:33;40.5;;;24.2;;
41229;SDS011;26964;50.428;19.218;2023-04-28T01:04:33;43.8;;;25.7;;
41229;SDS011;26964;50.428;19.218;2023-04-28T01:05:33;46.2;;;25.4;;
41229;SDS011;26964;50.428;19.218;2023-04-28T01:06:33;40.2;;;24.6;;
41229;SDS011;26964;50.428;19.218;2023-04-28T01:07:33;43.7;;;24.6;;
41229;SDS011;26964;50.428;19.218;2023-04-28T01:08:33;43.3;;;25.1;;
41229;SDS011;26964;50.428;19.218;2023-04-28T01:09:33;45.5;;;25.7;;
41229;SDS011;26964;50.428;19.218;2023-04-28T01:10:33;47.2;;;26.9;;
41229;SDS011;26964;50.428;19.218;2023-04-28T01:11:33;46.2;;;28.0;;
41229;SDS011;26964;50.428;19.218;2023-04-28T01:12:33;50.4;;;30.4;;
41229;SDS011;26964;50.428;19.218;2023-04-28T01:13:33;55.3;;;30.2;;
41229;SDS011;26964;50.428;19.218;2023-04-28T01:14:33;49.3;;;28.6;;
41229;SDS011;26964;50.428;19.218;2023-04-28T01:15:33;48.5;;;27.4;;
41229;SDS011;26964;50.428;19.218;2023-04-28T01:16:33;45.5;;;26.1;;
41229;SDS011;26964;50.428;19.218;2023-04-28T01:17:33;44.5;;;24.8;;
41229;SDS011;26964;50.428;19.218;2023-04-28T01:18:33;41.8;;;23.7;;
41229;SDS011;26964;50.428;19.218;2023-04-28T01:19:33;40.3;;;24.0;;
41229;SDS011;26964;50.428;19.218;2023-04-28T01:20:34;38.3;;;22.8;;
41229;SDS011;26964;50.428;19.218;2023-04-28T01:21:56;38.8;;;22.7;;
41229;SDS011;26964;50.428;19.218;2023-04-28T01:22:33;40.5;;;24.0;;
41229;SDS011;26964;50.428;19.218;2023-04-28T01:23:33;38.5;;;22.1;;
41229;SDS011;26964;50.428;19.218;2023-04-28T01:24:33;35.5;;;21.4;;
41229;SDS011;26964;50.428;19.218;2023-04-28T01:25:33;41.7;;;21.9;;
41229;SDS011;26964;50.428;19.218;2023-04-28T01:26:33;32.4;;;18.5;;
41229;SDS011;26964;50.428;19.218;2023-04-28T01:27:33;34.3;;;19.4;;
41229;SDS011;26964;50.428;19.218;2023-04-28T01:29:33;33.9;;;19.4;;
41229;SDS011;26964;50.428;19.218;2023-04-28T01:30:33;35.8;;;19.7;;
41229;SDS011;26964;50.428;19.218;2023-04-28T01:31:33;30.9;;;19.3;;
41229;SDS011;26964;50.428;19.218;2023-04-28T01:32:33;33.0;;;19.8;;
41229;SDS011;26964;50.428;19.218;2023-04-28T01:33:33;33.4;;;19.2;;
41229;SDS011;26964;50.428;19.218;2023-04-28T01:34:33;35.4;;;20.5;;
41229;SDS011;26964;50.428;19.218;2023-04-28T01:35:33;38.0;;;19.6;;
41229;SDS011;26964;50.428;19.218;2023-04-28T01:36:33;31.7;;;19.2;;
41229;SDS011;26964;50.428;19.218;2023-04-28T01:37:33;33.0;;;19.8;;
41229;SDS011;26964;50.428;19.218;2023-04-28T01:38:33;32.5;;;20.2;;
41229;SDS011;26964;50.428;19.218;2023-04-28T01:39:33;32.3;;;18.7;;
41229;SDS011;26964;50.428;19.218;2023-04-28T01:40:33;33.6;;;19.3;;
41229;SDS011;26964;50.428;19.218;2023-04-28T01:41:33;32.3;;;19.3;;
41229;SDS011;26964;50.428;19.218;2023-04-28T01:42:33;29.9;;;18.1;;
41229;SDS011;26964;50.428;19.218;2023-04-28T01:43:33;33.3;;;19.1;;
41229;SDS011;26964;50.428;19.218;2023-04-28T01:44:33;32.7;;;19.6;;
41229;SDS011;26964;50.428;19.218;2023-04-28T01:45:33;34.6;;;19.4;;
41229;SDS011;26964;50.428;19.218;2023-04-28T01:46:33;32.5;;;20.3;;
41229;SDS011;26964;50.428;19.218;2023-04-28T01:47:33;33.0;;;19.3;;
41229;SDS011;26964;50.428;19.218;2023-04-28T01:48:33;36.2;;;20.0;;
41229;SDS011;26964;50.428;19.218;2023-04-28T01:49:34;36.1;;;19.2;;
41229;SDS011;26964;50.428;19.218;2023-04-28T01:50:33;32.3;;;18.7;;
41229;SDS011;26964;50.428;19.218;2023-04-28T01:51:33;33.1;;;19.8;;
41229;SDS011;26964;50.428;19.218;2023-04-28T01:52:33;33.8;;;20.3;;
41229;SDS011;26964;50.428;19.218;2023-04-28T01:54:33;32.8;;;19.2;;
41229;SDS011;26964;50.428;19.218;2023-04-28T01:55:33;32.4;;;18.6;;
41229;SDS011;26964;50.428;19.218;2023-04-28T01:56:33;30.4;;;17.9;;
41229;SDS011;26964;50.428;19.218;2023-04-28T01:57:33;30.2;;;17.7;;
41229;SDS011;26964;50.428;19.218;2023-04-28T01:58:33;28.1;;;17.3;;
41229;SDS011;26964;50.428;19.218;2023-04-28T01:59:33;31.9;;;18.5;;
41229;SDS011;26964;50.428;19.218;2023-04-28T02:00:33;31.1;;;18.0;;
41229;SDS011;26964;50.428;19.218;2023-04-28T02:01:33;34.8;;;18.1;;
41229;SDS011;26964;50.428;19.218;2023-04-28T02:02:33;31.9;;;18.2;;
41229;SDS011;26964;50.428;19.218;2023-04-28T02:03:33;30.6;;;17.5;;
41229;SDS011;26964;50.428;19.218;2023-04-28T02:04:33;32.7;;;19.1;;
41229;SDS011;26964;50.428;19.218;2023-04-28T02:05:33;30.6;;;18.8;;
41229;SDS011;26964;50.428;19.218;2023-04-28T02:06:33;34.2;;;19.6;;
41229;SDS011;26964;50.428;19.218;2023-04-28T02:07:33;31.2;;;18.1;;
41229;SDS011;26964;50.428;19.218;2023-04-28T02:08:33;37.0;;;19.6;;
41229;SDS011;26964;50.428;19.218;2023-04-28T02:09:33;32.3;;;18.1;;
41229;SDS011;26964;50.428;19.218;2023-04-28T02:10:33;33.2;;;19.4;;
41229;SDS011;26964;50.428;19.218;2023-04-28T02:11:33;32.6;;;19.1;;
41229;SDS011;26964;50.428;19.218;2023-04-28T02:12:33;33.7;;;18.8;;
41229;SDS011;26964;50.428;19.218;2023-04-28T02:13:33;34.5;;;19.3;;
41229;SDS011;26964;50.428;19.218;2023-04-28T02:14:33;32.7;;;18.8;;
41229;SDS011;26964;50.428;19.218;2023-04-28T02:15:33;32.5;;;18.0;;
41229;SDS011;26964;50.428;19.218;2023-04-28T02:16:33;32.5;;;19.6;;
41229;SDS011;26964;50.428;19.218;2023-04-28T02:17:33;29.4;;;18.6;;
41229;SDS011;26964;50.428;19.218;2023-04-28T02:18:33;32.7;;;18.1;;
41229;SDS011;26964;50.428;19.218;2023-04-28T02:19:33;31.5;;;19.3;;
41229;SDS011;26964;50.428;19.218;2023-04-28T02:20:33;32.7;;;19.4;;
41229;SDS011;26964;50.428;19.218;2023-04-28T02:21:33;35.5;;;18.9;;
41229;SDS011;26964;50.428;19.218;2023-04-28T02:22:33;42.9;;;22.7;;
41229;SDS011;26964;50.428;19.218;2023-04-28T02:23:33;44.6;;;22.6;;
41229;SDS011;26964;50.428;19.218;2023-04-28T02:24:33;37.7;;;22.0;;
41229;SDS011;26964;50.428;19.218;2023-04-28T02:25:33;48.5;;;26.5;;
41229;SDS011;26964;50.428;19.218;2023-04-28T02:26:33;56.0;;;26.5;;
41229;SDS011;26964;50.428;19.218;2023-04-28T02:28:33;58.9;;;28.5;;
41229;SDS011;26964;50.428;19.218;2023-04-28T02:29:33;47.6;;;24.7;;
41229;SDS011;26964;50.428;19.218;2023-04-28T02:30:33;43.2;;;21.6;;
41229;SDS011;26964;50.428;19.218;2023-04-28T02:31:33;35.1;;;20.0;;
41229;SDS011;26964;50.428;19.218;2023-04-28T02:32:33;39.2;;;20.6;;
41229;SDS011;26964;50.428;19.218;2023-04-28T02:33:33;34.5;;;19.8;;
41229;SDS011;26964;50.428;19.218;2023-04-28T02:34:33;39.2;;;19.4;;
41229;SDS011;26964;50.428;19.218;2023-04-28T02:35:33;33.5;;;18.4;;
41229;SDS011;26964;50.428;19.218;2023-04-28T02:36:33;32.4;;;18.9;;
41229;SDS011;26964;50.428;19.218;2023-04-28T02:37:33;32.9;;;18.0;;
41229;SDS011;26964;50.428;19.218;2023-04-28T02:38:33;36.8;;;18.9;;
41229;SDS011;26964;50.428;19.218;2023-04-28T02:39:33;30.8;;;18.4;;
41229;SDS011;26964;50.428;19.218;2023-04-28T02:40:33;36.1;;;19.6;;
41229;SDS011;26964;50.428;19.218;2023-04-28T02:41:33;35.5;;;19.9;;
41229;SDS011;26964;50.428;19.218;2023-04-28T02:42:33;33.7;;;18.4;;
41229;SDS011;26964;50.428;19.218;2023-04-28T02:43:37;36.4;;;20.0;;
41229;SDS011;26964;50.428;19.218;2023-04-28T02:44:33;34.6;;;19.2;;
41229;SDS011;26964;50.428;19.218;2023-04-28T02:45:33;37.4;;;18.6;;
41229;SDS011;26964;50.428;19.218;2023-04-28T02:46:33;34.6;;;18.9;;
41229;SDS011;26964;50.428;19.218;2023-04-28T02:47:33;37.1;;;19.2;;
41229;SDS011;26964;50.428;19.218;2023-04-28T02:48:33;35.0;;;19.4;;
41229;SDS011;26964;50.428;19.218;2023-04-28T02:49:33;36.7;;;19.0;;
41229;SDS011;26964;50.428;19.218;2023-04-28T02:50:33;39.9;;;20.0;;
41229;SDS011;26964;50.428;19.218;2023-04-28T02:51:33;38.4;;;21.0;;
41229;SDS011;26964;50.428;19.218;2023-04-28T02:52:33;39.4;;;21.5;;
41229;SDS011;26964;50.428;19.218;2023-04-28T02:53:33;37.5;;;19.9;;
41229;SDS011;26964;50.428;19.218;2023-04-28T02:54:33;38.9;;;20.1;;
41229;SDS011;26964;50.428;19.218;2023-04-28T02:55:33;36.0;;;20.3;;
41229;SDS011;26964;50.428;19.218;2023-04-28T02:56:33;38.3;;;21.0;;
41229;SDS011;26964;50.428;19.218;2023-04-28T02:57:33;42.3;;;21.6;;
41229;SDS011;26964;50.428;19.218;2023-04-28T02:58:33;40.2;;;22.2;;
41229;SDS011;26964;50.428;19.218;2023-04-28T02:59:33;36.5;;;20.5;;
41229;SDS011;26964;50.428;19.218;2023-04-28T03:00:33;41.6;;;20.7;;
41229;SDS011;26964;50.428;19.218;2023-04-28T03:01:33;37.2;;;19.3;;
41229;SDS011;26964;50.428;19.218;2023-04-28T03:02:33;42.4;;;21.2;;
41229;SDS011;26964;50.428;19.218;2023-04-28T03:03:33;36.5;;;21.8;;
41229;SDS011;26964;50.428;19.218;2023-04-28T03:04:33;42.1;;;22.9;;
41229;SDS011;26964;50.428;19.218;2023-04-28T03:05:33;41.4;;;23.1;;
41229;SDS011;26964;50.428;19.218;2023-04-28T03:06:33;42.6;;;23.1;;
41229;SDS011;26964;50.428;19.218;2023-04-28T03:07:33;41.7;;;21.9;;
41229;SDS011;26964;50.428;19.218;2023-04-28T03:08:33;41.1;;;23.8;;
41229;SDS011;26964;50.428;19.218;2023-04-28T03:09:33;38.7;;;22.1;;
41229;SDS011;26964;50.428;19.218;2023-04-28T03:10:33;41.3;;;22.0;;
41229;SDS011;26964;50.428;19.218;2023-04-28T03:11:33;41.6;;;23.3;;
41229;SDS011;26964;50.428;19.218;2023-04-28T03:12:33;40.0;;;21.7;;
41229;SDS011;26964;50.428;19.218;2023-04-28T03:13:33;38.6;;;21.5;;
41229;SDS011;26964;50.428;19.218;2023-04-28T03:14:33;38.7;;;21.8;;
41229;SDS011;26964;50.428;19.218;2023-04-28T03:15:33;38.5;;;22.0;;
41229;SDS011;26964;50.428;19.218;2023-04-28T03:16:33;42.3;;;21.8;;
41229;SDS011;26964;50.428;19.218;2023-04-28T03:17:33;37.9;;;20.3;;
41229;SDS011;26964;50.428;19.218;2023-04-28T03:18:33;38.4;;;21.6;;
41229;SDS011;26964;50.428;19.218;2023-04-28T03:19:33;37.7;;;21.6;;
41229;SDS011;26964;50.428;19.218;2023-04-28T03:20:33;34.2;;;20.7;;
41229;SDS011;26964;50.428;19.218;2023-04-28T03:21:33;37.7;;;21.7;;
41229;SDS011;26964;50.428;19.218;2023-04-28T03:22:33;42.7;;;22.9;;
41229;SDS011;26964;50.428;19.218;2023-04-28T03:23:33;37.7;;;21.8;;
41229;SDS011;26964;50.428;19.218;2023-04-28T03:24:33;35.3;;;20.6;;
41229;SDS011;26964;50.428;19.218;2023-04-28T03:25:33;34.2;;;20.4;;
41229;SDS011;26964;50.428;19.218;2023-04-28T03:26:33;37.4;;;21.3;;
41229;SDS011;26964;50.428;19.218;2023-04-28T03:27:33;40.3;;;21.4;;
41229;SDS011;26964;50.428;19.218;2023-04-28T03:28:33;42.9;;;22.5;;
41229;SDS011;26964;50.428;19.218;2023-04-28T03:29:33;37.0;;;21.7;;
41229;SDS011;26964;50.428;19.218;2023-04-28T03:30:33;42.9;;;22.2;;
41229;SDS011;26964;50.428;19.218;2023-04-28T03:31:57;38.9;;;22.0;;
41229;SDS011;26964;50.428;19.218;2023-04-28T03:32:33;40.6;;;21.0;;
41229;SDS011;26964;50.428;19.218;2023-04-28T03:33:33;36.9;;;21.0;;
41229;SDS011;26964;50.428;19.218;2023-04-28T03:34:33;36.5;;;20.4;;
41229;SDS011;26964;50.428;19.218;2023-04-28T03:35:33;37.6;;;20.3;;
41229;SDS011;26964;50.428;19.218;2023-04-28T03:36:33;37.1;;;21.6;;
41229;SDS011;26964;50.428;19.218;2023-04-28T03:37:33;37.7;;;22.0;;
41229;SDS011;26964;50.428;19.218;2023-04-28T03:38:33;37.8;;;22.0;;
41229;SDS011;26964;50.428;19.218;2023-04-28T03:39:33;36.9;;;22.6;;
41229;SDS011;26964;50.428;19.218;2023-04-28T03:40:33;36.3;;;21.6;;
41229;SDS011;26964;50.428;19.218;2023-04-28T03:41:33;37.0;;;21.3;;
41229;SDS011;26964;50.428;19.218;2023-04-28T03:42:33;43.3;;;22.4;;
41229;SDS011;26964;50.428;19.218;2023-04-28T03:43:33;36.4;;;21.8;;
41229;SDS011;26964;50.428;19.218;2023-04-28T03:44:33;40.2;;;22.4;;
41229;SDS011;26964;50.428;19.218;2023-04-28T03:45:33;36.1;;;22.3;;
41229;SDS011;26964;50.428;19.218;2023-04-28T03:46:33;36.1;;;22.0;;
41229;SDS011;26964;50.428;19.218;2023-04-28T03:47:33;34.0;;;20.1;;
41229;SDS011;26964;50.428;19.218;2023-04-28T03:48:33;39.9;;;21.6;;
41229;SDS011;26964;50.428;19.218;2023-04-28T03:49:33;41.2;;;21.5;;
41229;SDS011;26964;50.428;19.218;2023-04-28T03:50:33;35.4;;;21.2;;
41229;SDS011;26964;50.428;19.218;2023-04-28T03:51:33;38.2;;;20.5;;
41229;SDS011;26964;50.428;19.218;2023-04-28T03:52:33;34.9;;;20.3;;
41229;SDS011;26964;50.428;19.218;2023-04-28T03:53:33;36.9;;;21.1;;
41229;SDS011;26964;50.428;19.218;2023-04-28T03:54:32;38.2;;;21.9;;
41229;SDS011;26964;50.428;19.218;2023-04-28T03:55:33;37.0;;;21.9;;
41229;SDS011;26964;50.428;19.218;2023-04-28T03:56:33;39.8;;;21.9;;
41229;SDS011;26964;50.428;19.218;2023-04-28T03:57:33;37.1;;;20.7;;
41229;SDS011;26964;50.428;19.218;2023-04-28T03:58:33;36.6;;;20.5;;
41229;SDS011;26964;50.428;19.218;2023-04-28T03:59:33;38.7;;;21.1;;
41229;SDS011;26964;50.428;19.218;2023-04-28T04:00:32;40.6;;;21.7;;
41229;SDS011;26964;50.428;19.218;2023-04-28T04:01:33;37.6;;;21.0;;
41229;SDS011;26964;50.428;19.218;2023-04-28T04:02:33;37.8;;;21.5;;
41229;SDS011;26964;50.428;19.218;2023-04-28T04:03:33;37.4;;;21.3;;
41229;SDS011;26964;50.428;19.218;2023-04-28T04:04:33;35.3;;;20.9;;
41229;SDS011;26964;50.428;19.218;2023-04-28T04:05:32;40.1;;;22.1;;
41229;SDS011;26964;50.428;19.218;2023-04-28T04:06:33;38.5;;;22.0;;
41229;SDS011;26964;50.428;19.218;2023-04-28T04:08:33;38.4;;;22.0;;
41229;SDS011;26964;50.428;19.218;2023-04-28T04:09:47;36.9;;;21.8;;
41229;SDS011;26964;50.428;19.218;2023-04-28T04:10:33;38.6;;;22.1;;
41229;SDS011;26964;50.428;19.218;2023-04-28T04:11:32;38.4;;;22.2;;
41229;SDS011;26964;50.428;19.218;2023-04-28T04:12:32;36.4;;;21.4;;
41229;SDS011;26964;50.428;19.218;2023-04-28T04:13:32;35.6;;;22.0;;
41229;SDS011;26964;50.428;19.218;2023-04-28T04:14:33;45.6;;;24.0;;
41229;SDS011;26964;50.428;19.218;2023-04-28T04:15:32;44.3;;;23.0;;
41229;SDS011;26964;50.428;19.218;2023-04-28T04:16:32;42.1;;;22.5;;
41229;SDS011;26964;50.428;19.218;2023-04-28T04:17:33;38.3;;;22.2;;
41229;SDS011;26964;50.428;19.218;2023-04-28T04:18:33;41.6;;;22.3;;
41229;SDS011;26964;50.428;19.218;2023-04-28T04:19:33;41.4;;;22.8;;
41229;SDS011;26964;50.428;19.218;2023-04-28T04:20:32;39.9;;;23.2;;
41229;SDS011;26964;50.428;19.218;2023-04-28T04:21:32;41.2;;;23.4;;
41229;SDS011;26964;50.428;19.218;2023-04-28T04:22:32;37.8;;;22.0;;
41229;SDS011;26964;50.428;19.218;2023-04-28T04:23:32;43.1;;;23.4;;
41229;SDS011;26964;50.428;19.218;2023-04-28T04:24:32;39.3;;;22.9;;
41229;SDS011;26964;50.428;19.218;2023-04-28T04:25:32;38.7;;;23.4;;
41229;SDS011;26964;50.428;19.218;2023-04-28T04:26:32;45.8;;;24.7;;
41229;SDS011;26964;50.428;19.218;2023-04-28T04:27:33;43.2;;;22.8;;
41229;SDS011;26964;50.428;19.218;2023-04-28T04:28:33;42.6;;;23.4;;
41229;SDS011;26964;50.428;19.218;2023-04-28T04:29:33;38.1;;;21.8;;
41229;SDS011;26964;50.428;19.218;2023-04-28T04:30:33;44.4;;;23.7;;
41229;SDS011;26964;50.428;19.218;2023-04-28T04:31:33;43.5;;;24.0;;
41229;SDS011;26964;50.428;19.218;2023-04-28T04:32:32;43.6;;;23.3;;
41229;SDS011;26964;50.428;19.218;2023-04-28T04:33:32;44.8;;;24.2;;
41229;SDS011;26964;50.428;19.218;2023-04-28T04:34:32;47.8;;;25.5;;
41229;SDS011;26964;50.428;19.218;2023-04-28T04:35:33;45.4;;;24.0;;
41229;SDS011;26964;50.428;19.218;2023-04-28T04:36:32;52.9;;;25.4;;
41229;SDS011;26964;50.428;19.218;2023-04-28T04:37:32;44.9;;;24.5;;
41229;SDS011;26964;50.428;19.218;2023-04-28T04:38:32;47.9;;;24.7;;
41229;SDS011;26964;50.428;19.218;2023-04-28T04:39:32;46.8;;;24.7;;
41229;SDS011;26964;50.428;19.218;2023-04-28T04:40:33;44.9;;;24.6;;
41229;SDS011;26964;50.428;19.218;2023-04-28T04:41:32;49.4;;;27.0;;
41229;SDS011;26964;50.428;19.218;2023-04-28T04:42:33;48.0;;;25.7;;
41229;SDS011;26964;50.428;19.218;2023-04-28T04:43:32;47.4;;;25.3;;
41229;SDS011;26964;50.428;19.218;2023-04-28T04:44:33;44.8;;;24.2;;
41229;SDS011;26964;50.428;19.218;2023-04-28T04:45:32;48.7;;;25.9;;
41229;SDS011;26964;50.428;19.218;2023-04-28T04:46:32;45.9;;;24.6;;
41229;SDS011;26964;50.428;19.218;2023-04-28T04:47:32;47.8;;;24.6;;
41229;SDS011;26964;50.428;19.218;2023-04-28T04:48:32;48.0;;;25.4;;
41229;SDS011;26964;50.428;19.218;2023-04-28T04:49:32;49.4;;;26.0;;
41229;SDS011;26964;50.428;19.218;2023-04-28T04:50:32;54.7;;;26.0;;
41229;SDS011;26964;50.428;19.218;2023-04-28T04:51:33;49.8;;;24.9;;
41229;SDS011;26964;50.428;19.218;2023-04-28T04:52:32;45.6;;;24.5;;
41229;SDS011;26964;50.428;19.218;2023-04-28T04:53:32;47.4;;;26.1;;
41229;SDS011;26964;50.428;19.218;2023-04-28T04:54:32;43.3;;;26.4;;
41229;SDS011;26964;50.428;19.218;2023-04-28T04:55:32;47.7;;;25.6;;
41229;SDS011;26964;50.428;19.218;2023-04-28T04:56:32;55.2;;;26.8;;
41229;SDS011;26964;50.428;19.218;2023-04-28T04:57:33;47.8;;;25.1;;
41229;SDS011;26964;50.428;19.218;2023-04-28T04:58:32;52.8;;;24.3;;
41229;SDS011;26964;50.428;19.218;2023-04-28T04:59:32;49.5;;;24.1;;
41229;SDS011;26964;50.428;19.218;2023-04-28T05:00:33;49.2;;;24.8;;
41229;SDS011;26964;50.428;19.218;2023-04-28T05:01:32;54.4;;;24.0;;
41229;SDS011;26964;50.428;19.218;2023-04-28T05:02:33;49.6;;;24.7;;
41229;SDS011;26964;50.428;19.218;2023-04-28T05:03:32;51.0;;;23.9;;
41229;SDS011;26964;50.428;19.218;2023-04-28T05:04:32;48.2;;;24.1;;
41229;SDS011;26964;50.428;19.218;2023-04-28T05:07:33;46.8;;;25.0;;
41229;SDS011;26964;50.428;19.218;2023-04-28T05:08:33;51.5;;;26.2;;
41229;SDS011;26964;50.428;19.218;2023-04-28T05:09:33;48.3;;;25.4;;
41229;SDS011;26964;50.428;19.218;2023-04-28T05:10:32;47.5;;;24.5;;
41229;SDS011;26964;50.428;19.218;2023-04-28T05:11:32;46.1;;;24.7;;
41229;SDS011;26964;50.428;19.218;2023-04-28T05:12:32;44.8;;;24.2;;
41229;SDS011;26964;50.428;19.218;2023-04-28T05:13:33;50.5;;;24.4;;
41229;SDS011;26964;50.428;19.218;2023-04-28T05:14:32;50.6;;;23.8;;
41229;SDS011;26964;50.428;19.218;2023-04-28T05:15:33;41.5;;;24.0;;
41229;SDS011;26964;50.428;19.218;2023-04-28T05:16:32;44.1;;;23.4;;
41229;SDS011;26964;50.428;19.218;2023-04-28T05:17:32;46.6;;;22.6;;
41229;SDS011;26964;50.428;19.218;2023-04-28T05:18:32;40.3;;;22.3;;
41229;SDS011;26964;50.428;19.218;2023-04-28T05:19:32;42.0;;;23.1;;
41229;SDS011;26964;50.428;19.218;2023-04-28T05:20:32;41.1;;;22.5;;
41229;SDS011;26964;50.428;19.218;2023-04-28T05:21:32;42.5;;;22.4;;
41229;SDS011;26964;50.428;19.218;2023-04-28T05:22:32;40.7;;;23.2;;
41229;SDS011;26964;50.428;19.218;2023-04-28T05:23:32;36.7;;;21.3;;
41229;SDS011;26964;50.428;19.218;2023-04-28T05:24:33;38.5;;;21.2;;
41229;SDS011;26964;50.428;19.218;2023-04-28T05:25:32;38.2;;;21.3;;
41229;SDS011;26964;50.428;19.218;2023-04-28T05:26:32;38.6;;;21.4;;
41229;SDS011;26964;50.428;19.218;2023-04-28T05:27:32;33.5;;;20.1;;
41229;SDS011;26964;50.428;19.218;2023-04-28T05:28:32;35.8;;;20.7;;
41229;SDS011;26964;50.428;19.218;2023-04-28T05:29:32;42.0;;;21.4;;
41229;SDS011;26964;50.428;19.218;2023-04-28T05:30:32;37.1;;;19.8;;
41229;SDS011;26964;50.428;19.218;2023-04-28T05:31:33;38.3;;;20.7;;
41229;SDS011;26964;50.428;19.218;2023-04-28T05:32:33;38.4;;;20.2;;
41229;SDS011;26964;50.428;19.218;2023-04-28T05:33:32;33.4;;;19.7;;
41229;SDS011;26964;50.428;19.218;2023-04-28T05:34:33;32.0;;;19.0;;
41229;SDS011;26964;50.428;19.218;2023-04-28T05:35:32;35.5;;;19.8;;
41229;SDS011;26964;50.428;19.218;2023-04-28T05:36:32;38.3;;;20.7;;
41229;SDS011;26964;50.428;19.218;2023-04-28T05:37:32;37.9;;;19.8;;
41229;SDS011;26964;50.428;19.218;2023-04-28T05:38:32;46.6;;;21.2;;
41229;SDS011;26964;50.428;19.218;2023-04-28T05:39:32;43.0;;;19.2;;
41229;SDS011;26964;50.428;19.218;2023-04-28T05:40:32;32.9;;;19.0;;
41229;SDS011;26964;50.428;19.218;2023-04-28T05:41:33;37.4;;;18.7;;
41229;SDS011;26964;50.428;19.218;2023-04-28T05:42:32;32.7;;;18.8;;
41229;SDS011;26964;50.428;19.218;2023-04-28T05:43:32;36.1;;;18.7;;
41229;SDS011;26964;50.428;19.218;2023-04-28T05:44:32;30.9;;;18.8;;
41229;SDS011;26964;50.428;19.218;2023-04-28T05:45:32;32.4;;;17.9;;
41229;SDS011;26964;50.428;19.218;2023-04-28T05:46:32;31.4;;;18.5;;
41229;SDS011;26964;50.428;19.218;2023-04-28T05:47:33;37.4;;;19.2;;
41229;SDS011;26964;50.428;19.218;2023-04-28T05:48:32;31.4;;;18.2;;
41229;SDS011;26964;50.428;19.218;2023-04-28T05:49:32;33.5;;;17.9;;
41229;SDS011;26964;50.428;19.218;2023-04-28T05:50:32;32.1;;;18.8;;
41229;SDS011;26964;50.428;19.218;2023-04-28T05:51:32;30.6;;;18.0;;
41229;SDS011;26964;50.428;19.218;2023-04-28T05:52:32;32.5;;;17.2;;
41229;SDS011;26964;50.428;19.218;2023-04-28T05:53:32;33.7;;;18.7;;
41229;SDS011;26964;50.428;19.218;2023-04-28T05:55:33;34.2;;;18.9;;
41229;SDS011;26964;50.428;19.218;2023-04-28T05:56:32;40.1;;;19.0;;
41229;SDS011;26964;50.428;19.218;2023-04-28T05:57:33;36.1;;;19.0;;
41229;SDS011;26964;50.428;19.218;2023-04-28T05:58:32;32.9;;;19.3;;
41229;SDS011;26964;50.428;19.218;2023-04-28T05:59:32;31.4;;;18.8;;
41229;SDS011;26964;50.428;19.218;2023-04-28T06:00:32;38.5;;;20.2;;
41229;SDS011;26964;50.428;19.218;2023-04-28T06:01:32;37.8;;;20.1;;
41229;SDS011;26964;50.428;19.218;2023-04-28T06:02:32;36.2;;;19.2;;
41229;SDS011;26964;50.428;19.218;2023-04-28T06:03:32;34.0;;;20.2;;